sensor_id;sensor_type;location;lat;lon;timestamp;P1;durP1;ratioP1;P2;durP2;ratioP2
59828;SDS011;45708;51.848;107.620;2022-08-01T00:04:59;1.33;;;1.23;;
59828;SDS011;45708;51.848;107.620;2022-08-01T00:10:01;2.28;;;1.15;;
59828;SDS011;45708;51.848;107.620;2022-08-01T00:15:03;2.75;;;1.30;;
59828;SDS011;45708;51.848;107.620;2022-08-01T00:20:06;1.38;;;1.27;;
59828;SDS011;45708;51.848;107.620;2022-08-01T00:25:08;3.83;;;1.45;;
59828;SDS011;45708;51.848;107.620;2022-08-01T00:30:09;1.20;;;1.10;;
59828;SDS011;45708;51.848;107.620;2022-08-01T00:35:11;1.27;;;0.95;;
59828;SDS011;45708;51.848;107.620;2022-08-01T00:40:12;3.05;;;1.85;;
59828;SDS011;45708;51.848;107.620;2022-08-01T00:45:13;1.40;;;1.30;;
59828;SDS011;45708;51.848;107.620;2022-08-01T00:50:14;1.42;;;1.33;;
59828;SDS011;45708;51.848;107.620;2022-08-01T00:55:15;1.40;;;1.30;;
59828;SDS011;45708;51.848;107.620;2022-08-01T01:00:17;3.88;;;1.75;;
59828;SDS011;45708;51.848;107.620;2022-08-01T01:05:18;3.95;;;1.80;;
59828;SDS011;45708;51.848;107.620;2022-08-01T01:15:40;2.78;;;2.40;;
59828;SDS011;45708;51.848;107.620;2022-08-01T01:20:49;4.70;;;1.92;;
59828;SDS011;45708;51.848;107.620;2022-08-01T01:26:04;2.70;;;2.22;;
59828;SDS011;45708;51.848;107.620;2022-08-01T01:31:08;4.10;;;2.30;;
59828;SDS011;45708;51.848;107.620;2022-08-01T01:36:12;2.88;;;1.98;;
59828;SDS011;45708;51.848;107.620;2022-08-01T01:41:16;1.80;;;1.55;;
59828;SDS011;45708;51.848;107.620;2022-08-01T01:46:19;2.03;;;1.38;;
59828;SDS011;45708;51.848;107.620;2022-08-01T01:51:24;2.25;;;1.95;;
59828;SDS011;45708;51.848;107.620;2022-08-01T01:56:27;3.67;;;2.30;;
59828;SDS011;45708;51.848;107.620;2022-08-01T02:01:31;3.95;;;2.67;;
59828;SDS011;45708;51.848;107.620;2022-08-01T02:06:33;3.00;;;2.38;;
59828;SDS011;45708;51.848;107.620;2022-08-01T02:11:35;3.83;;;2.45;;
59828;SDS011;45708;51.848;107.620;2022-08-01T02:16:39;4.32;;;2.67;;
59828;SDS011;45708;51.848;107.620;2022-08-01T02:21:51;4.63;;;3.47;;
59828;SDS011;45708;51.848;107.620;2022-08-01T02:26:57;5.78;;;3.70;;
59828;SDS011;45708;51.848;107.620;2022-08-01T02:32:01;6.10;;;3.78;;
59828;SDS011;45708;51.848;107.620;2022-08-01T02:37:04;4.95;;;3.58;;
59828;SDS011;45708;51.848;107.620;2022-08-01T02:42:06;4.75;;;3.20;;
59828;SDS011;45708;51.848;107.620;2022-08-01T02:47:09;6.20;;;3.97;;
59828;SDS011;45708;51.848;107.620;2022-08-01T02:52:12;6.13;;;3.92;;
59828;SDS011;45708;51.848;107.620;2022-08-01T02:57:15;6.63;;;3.83;;
59828;SDS011;45708;51.848;107.620;2022-08-01T03:02:18;6.95;;;4.45;;
59828;SDS011;45708;51.848;107.620;2022-08-01T03:07:21;6.28;;;4.13;;
59828;SDS011;45708;51.848;107.620;2022-08-01T03:12:24;5.57;;;3.47;;
59828;SDS011;45708;51.848;107.620;2022-08-01T03:17:27;6.68;;;3.83;;
59828;SDS011;45708;51.848;107.620;2022-08-01T03:22:29;5.90;;;3.45;;
59828;SDS011;45708;51.848;107.620;2022-08-01T03:27:32;4.95;;;3.38;;
59828;SDS011;45708;51.848;107.620;2022-08-01T03:32:36;4.60;;;3.55;;
59828;SDS011;45708;51.848;107.620;2022-08-01T03:37:47;5.82;;;4.70;;
59828;SDS011;45708;51.848;107.620;2022-08-01T03:42:56;9.90;;;4.78;;
59828;SDS011;45708;51.848;107.620;2022-08-01T03:48:03;6.72;;;4.13;;
59828;SDS011;45708;51.848;107.620;2022-08-01T03:53:14;4.82;;;3.13;;
59828;SDS011;45708;51.848;107.620;2022-08-01T03:58:19;6.40;;;4.22;;
59828;SDS011;45708;51.848;107.620;2022-08-01T04:03:22;8.20;;;5.68;;
59828;SDS011;45708;51.848;107.620;2022-08-01T04:08:33;8.15;;;5.60;;
59828;SDS011;45708;51.848;107.620;2022-08-01T04:13:35;10.52;;;5.75;;
59828;SDS011;45708;51.848;107.620;2022-08-01T04:18:36;8.55;;;5.80;;
59828;SDS011;45708;51.848;107.620;2022-08-01T04:23:37;7.50;;;4.65;;
59828;SDS011;45708;51.848;107.620;2022-08-01T04:28:40;7.25;;;4.40;;
59828;SDS011;45708;51.848;107.620;2022-08-01T04:33:45;7.85;;;5.07;;
59828;SDS011;45708;51.848;107.620;2022-08-01T04:38:50;11.05;;;5.40;;
59828;SDS011;45708;51.848;107.620;2022-08-01T04:43:56;9.27;;;4.83;;
59828;SDS011;45708;51.848;107.620;2022-08-01T04:48:58;8.15;;;4.32;;
59828;SDS011;45708;51.848;107.620;2022-08-01T04:53:59;8.82;;;4.32;;
59828;SDS011;45708;51.848;107.620;2022-08-01T04:59:01;7.35;;;4.03;;
59828;SDS011;45708;51.848;107.620;2022-08-01T05:04:02;7.30;;;4.25;;
59828;SDS011;45708;51.848;107.620;2022-08-01T05:09:02;9.10;;;4.97;;
59828;SDS011;45708;51.848;107.620;2022-08-01T05:14:03;9.55;;;5.10;;
59828;SDS011;45708;51.848;107.620;2022-08-01T05:19:04;9.38;;;5.72;;
59828;SDS011;45708;51.848;107.620;2022-08-01T05:24:05;8.63;;;4.63;;
59828;SDS011;45708;51.848;107.620;2022-08-01T05:29:06;8.15;;;4.53;;
59828;SDS011;45708;51.848;107.620;2022-08-01T05:34:07;8.15;;;4.60;;
59828;SDS011;45708;51.848;107.620;2022-08-01T05:39:09;7.60;;;4.43;;
59828;SDS011;45708;51.848;107.620;2022-08-01T05:44:10;7.70;;;3.92;;
59828;SDS011;45708;51.848;107.620;2022-08-01T05:49:11;8.57;;;4.68;;
59828;SDS011;45708;51.848;107.620;2022-08-01T05:54:12;9.32;;;4.72;;
59828;SDS011;45708;51.848;107.620;2022-08-01T05:59:13;7.88;;;4.68;;
59828;SDS011;45708;51.848;107.620;2022-08-01T06:04:14;5.15;;;3.35;;
59828;SDS011;45708;51.848;107.620;2022-08-01T06:09:15;6.63;;;3.70;;
59828;SDS011;45708;51.848;107.620;2022-08-01T06:14:16;6.32;;;3.47;;
59828;SDS011;45708;51.848;107.620;2022-08-01T06:19:16;6.35;;;3.83;;
59828;SDS011;45708;51.848;107.620;2022-08-01T06:24:17;4.18;;;3.75;;
59828;SDS011;45708;51.848;107.620;2022-08-01T06:29:18;7.32;;;3.55;;
59828;SDS011;45708;51.848;107.620;2022-08-01T06:34:19;5.53;;;3.67;;
59828;SDS011;45708;51.848;107.620;2022-08-01T06:39:20;5.53;;;3.17;;
59828;SDS011;45708;51.848;107.620;2022-08-01T06:44:21;3.03;;;2.25;;
59828;SDS011;45708;51.848;107.620;2022-08-01T06:49:25;3.78;;;2.67;;
59828;SDS011;45708;51.848;107.620;2022-08-01T06:54:26;2.95;;;1.73;;
59828;SDS011;45708;51.848;107.620;2022-08-01T06:59:27;4.30;;;2.58;;
59828;SDS011;45708;51.848;107.620;2022-08-01T07:04:29;5.13;;;3.50;;
59828;SDS011;45708;51.848;107.620;2022-08-01T07:09:30;4.57;;;2.88;;
59828;SDS011;45708;51.848;107.620;2022-08-01T07:14:31;5.25;;;3.17;;
59828;SDS011;45708;51.848;107.620;2022-08-01T07:19:32;3.50;;;2.20;;
59828;SDS011;45708;51.848;107.620;2022-08-01T07:24:33;5.40;;;3.00;;
59828;SDS011;45708;51.848;107.620;2022-08-01T07:29:34;4.60;;;2.83;;
59828;SDS011;45708;51.848;107.620;2022-08-01T07:34:35;3.22;;;2.65;;
59828;SDS011;45708;51.848;107.620;2022-08-01T07:39:35;6.78;;;2.95;;
59828;SDS011;45708;51.848;107.620;2022-08-01T07:44:36;5.75;;;4.30;;
59828;SDS011;45708;51.848;107.620;2022-08-01T07:49:37;5.20;;;3.42;;
59828;SDS011;45708;51.848;107.620;2022-08-01T07:54:38;5.82;;;2.92;;
59828;SDS011;45708;51.848;107.620;2022-08-01T07:59:39;4.35;;;2.80;;
59828;SDS011;45708;51.848;107.620;2022-08-01T08:04:40;4.82;;;2.38;;
59828;SDS011;45708;51.848;107.620;2022-08-01T08:09:41;2.90;;;2.22;;
59828;SDS011;45708;51.848;107.620;2022-08-01T08:14:42;4.50;;;2.67;;
59828;SDS011;45708;51.848;107.620;2022-08-01T08:19:43;4.32;;;3.30;;
59828;SDS011;45708;51.848;107.620;2022-08-01T08:24:44;5.47;;;3.10;;
59828;SDS011;45708;51.848;107.620;2022-08-01T08:29:45;3.78;;;2.47;;
59828;SDS011;45708;51.848;107.620;2022-08-01T08:34:45;3.25;;;2.35;;
59828;SDS011;45708;51.848;107.620;2022-08-01T08:39:46;2.88;;;1.95;;
59828;SDS011;45708;51.848;107.620;2022-08-01T08:44:47;3.67;;;2.42;;
59828;SDS011;45708;51.848;107.620;2022-08-01T08:49:49;2.38;;;1.70;;
59828;SDS011;45708;51.848;107.620;2022-08-01T08:54:53;2.90;;;2.35;;
59828;SDS011;45708;51.848;107.620;2022-08-01T08:59:55;4.03;;;1.95;;
59828;SDS011;45708;51.848;107.620;2022-08-01T09:04:56;1.88;;;1.30;;
59828;SDS011;45708;51.848;107.620;2022-08-01T09:09:58;3.47;;;2.03;;
59828;SDS011;45708;51.848;107.620;2022-08-01T09:14:59;3.25;;;2.13;;
59828;SDS011;45708;51.848;107.620;2022-08-01T09:20:00;3.15;;;2.38;;
59828;SDS011;45708;51.848;107.620;2022-08-01T09:25:08;3.22;;;2.45;;
59828;SDS011;45708;51.848;107.620;2022-08-01T09:30:14;2.25;;;1.98;;
59828;SDS011;45708;51.848;107.620;2022-08-01T09:35:38;2.30;;;2.10;;
59828;SDS011;45708;51.848;107.620;2022-08-01T09:45:48;3.45;;;2.47;;
59828;SDS011;45708;51.848;107.620;2022-08-01T09:50:50;4.18;;;2.00;;
59828;SDS011;45708;51.848;107.620;2022-08-01T09:55:52;1.35;;;1.20;;
59828;SDS011;45708;51.848;107.620;2022-08-01T10:00:59;1.50;;;1.10;;
59828;SDS011;45708;51.848;107.620;2022-08-01T10:11:18;1.42;;;0.98;;
59828;SDS011;45708;51.848;107.620;2022-08-01T10:16:20;2.35;;;1.95;;
59828;SDS011;45708;51.848;107.620;2022-08-01T10:21:21;2.78;;;1.67;;
59828;SDS011;45708;51.848;107.620;2022-08-01T10:26:25;0.88;;;0.70;;
59828;SDS011;45708;51.848;107.620;2022-08-01T10:31:26;1.55;;;1.20;;
59828;SDS011;45708;51.848;107.620;2022-08-01T10:36:28;1.63;;;1.33;;
59828;SDS011;45708;51.848;107.620;2022-08-01T10:41:32;1.40;;;1.10;;
59828;SDS011;45708;51.848;107.620;2022-08-01T10:46:39;1.33;;;0.95;;
59828;SDS011;45708;51.848;107.620;2022-08-01T10:51:42;0.95;;;0.60;;
59828;SDS011;45708;51.848;107.620;2022-08-01T10:56:46;1.55;;;0.80;;
59828;SDS011;45708;51.848;107.620;2022-08-01T11:01:58;1.38;;;0.60;;
59828;SDS011;45708;51.848;107.620;2022-08-01T11:07:04;1.20;;;0.70;;
59828;SDS011;45708;51.848;107.620;2022-08-01T11:12:08;1.42;;;0.77;;
59828;SDS011;45708;51.848;107.620;2022-08-01T11:34:02;0.77;;;0.60;;
59828;SDS011;45708;51.848;107.620;2022-08-01T11:49:42;0.60;;;0.60;;
59828;SDS011;45708;51.848;107.620;2022-08-01T11:54:50;2.33;;;1.63;;
59828;SDS011;45708;51.848;107.620;2022-08-01T11:59:58;4.40;;;3.17;;
59828;SDS011;45708;51.848;107.620;2022-08-01T12:05:04;7.43;;;4.85;;
59828;SDS011;45708;51.848;107.620;2022-08-01T12:10:09;4.18;;;3.53;;
59828;SDS011;45708;51.848;107.620;2022-08-01T12:15:12;5.03;;;3.45;;
59828;SDS011;45708;51.848;107.620;2022-08-01T12:20:20;4.40;;;3.15;;
59828;SDS011;45708;51.848;107.620;2022-08-01T12:25:22;3.28;;;2.72;;
59828;SDS011;45708;51.848;107.620;2022-08-01T12:30:23;4.28;;;2.97;;
59828;SDS011;45708;51.848;107.620;2022-08-01T12:35:24;3.92;;;2.65;;
59828;SDS011;45708;51.848;107.620;2022-08-01T12:40:30;3.47;;;2.42;;
59828;SDS011;45708;51.848;107.620;2022-08-01T12:45:37;3.85;;;2.47;;
59828;SDS011;45708;51.848;107.620;2022-08-01T12:50:46;2.25;;;1.65;;
59828;SDS011;45708;51.848;107.620;2022-08-01T12:55:49;6.18;;;2.83;;
59828;SDS011;45708;51.848;107.620;2022-08-01T13:01:01;3.97;;;2.65;;
59828;SDS011;45708;51.848;107.620;2022-08-01T13:06:14;5.25;;;3.30;;
59828;SDS011;45708;51.848;107.620;2022-08-01T13:11:15;3.67;;;3.28;;
59828;SDS011;45708;51.848;107.620;2022-08-01T13:16:17;4.03;;;3.42;;
59828;SDS011;45708;51.848;107.620;2022-08-01T13:21:29;3.60;;;2.97;;
59828;SDS011;45708;51.848;107.620;2022-08-01T13:26:44;6.20;;;3.85;;
59828;SDS011;45708;51.848;107.620;2022-08-01T13:31:47;4.97;;;3.15;;
59828;SDS011;45708;51.848;107.620;2022-08-01T13:36:48;6.78;;;4.82;;
59828;SDS011;45708;51.848;107.620;2022-08-01T13:41:49;8.65;;;5.00;;
59828;SDS011;45708;51.848;107.620;2022-08-01T13:46:50;5.45;;;3.53;;
59828;SDS011;45708;51.848;107.620;2022-08-01T13:51:51;7.20;;;4.68;;
59828;SDS011;45708;51.848;107.620;2022-08-01T13:56:52;9.27;;;5.53;;
59828;SDS011;45708;51.848;107.620;2022-08-01T14:01:53;8.80;;;5.05;;
59828;SDS011;45708;51.848;107.620;2022-08-01T14:06:54;8.30;;;5.60;;
59828;SDS011;45708;51.848;107.620;2022-08-01T14:11:55;7.70;;;4.30;;
59828;SDS011;45708;51.848;107.620;2022-08-01T14:16:56;6.38;;;3.95;;
59828;SDS011;45708;51.848;107.620;2022-08-01T14:21:57;4.18;;;3.08;;
59828;SDS011;45708;51.848;107.620;2022-08-01T14:26:58;3.65;;;2.78;;
59828;SDS011;45708;51.848;107.620;2022-08-01T14:31:59;7.25;;;3.78;;
59828;SDS011;45708;51.848;107.620;2022-08-01T14:36:59;6.90;;;3.83;;
59828;SDS011;45708;51.848;107.620;2022-08-01T14:42:00;7.13;;;4.65;;
59828;SDS011;45708;51.848;107.620;2022-08-01T14:47:01;9.80;;;3.42;;
59828;SDS011;45708;51.848;107.620;2022-08-01T14:52:02;5.88;;;3.03;;
59828;SDS011;45708;51.848;107.620;2022-08-01T14:57:03;4.38;;;2.63;;
59828;SDS011;45708;51.848;107.620;2022-08-01T15:02:04;4.22;;;2.35;;
59828;SDS011;45708;51.848;107.620;2022-08-01T15:07:04;3.85;;;1.98;;
59828;SDS011;45708;51.848;107.620;2022-08-01T15:12:05;1.35;;;1.23;;
59828;SDS011;45708;51.848;107.620;2022-08-01T15:17:07;1.83;;;1.42;;
59828;SDS011;45708;51.848;107.620;2022-08-01T15:22:08;2.40;;;1.20;;
59828;SDS011;45708;51.848;107.620;2022-08-01T15:27:09;1.23;;;1.00;;
59828;SDS011;45708;51.848;107.620;2022-08-01T15:32:11;2.78;;;1.23;;
59828;SDS011;45708;51.848;107.620;2022-08-01T15:37:12;3.97;;;2.65;;
59828;SDS011;45708;51.848;107.620;2022-08-01T15:42:13;6.72;;;4.55;;
59828;SDS011;45708;51.848;107.620;2022-08-01T15:47:16;6.63;;;4.68;;
59828;SDS011;45708;51.848;107.620;2022-08-01T15:52:17;7.95;;;4.25;;
59828;SDS011;45708;51.848;107.620;2022-08-01T15:57:17;8.35;;;4.30;;
59828;SDS011;45708;51.848;107.620;2022-08-01T16:02:18;5.93;;;4.03;;
59828;SDS011;45708;51.848;107.620;2022-08-01T16:07:19;5.60;;;3.33;;
59828;SDS011;45708;51.848;107.620;2022-08-01T16:12:20;4.55;;;2.97;;
59828;SDS011;45708;51.848;107.620;2022-08-01T16:17:21;3.70;;;2.42;;
59828;SDS011;45708;51.848;107.620;2022-08-01T16:22:21;5.50;;;3.08;;
59828;SDS011;45708;51.848;107.620;2022-08-01T16:27:22;5.15;;;2.70;;
59828;SDS011;45708;51.848;107.620;2022-08-01T16:32:23;6.10;;;2.42;;
59828;SDS011;45708;51.848;107.620;2022-08-01T16:37:24;3.28;;;2.17;;
59828;SDS011;45708;51.848;107.620;2022-08-01T16:42:25;6.43;;;3.60;;
59828;SDS011;45708;51.848;107.620;2022-08-01T16:47:26;4.68;;;3.20;;
59828;SDS011;45708;51.848;107.620;2022-08-01T16:52:26;6.90;;;3.67;;
59828;SDS011;45708;51.848;107.620;2022-08-01T16:57:27;5.32;;;3.50;;
59828;SDS011;45708;51.848;107.620;2022-08-01T17:02:28;5.47;;;3.17;;
59828;SDS011;45708;51.848;107.620;2022-08-01T17:07:29;5.63;;;3.42;;
59828;SDS011;45708;51.848;107.620;2022-08-01T17:12:30;8.75;;;4.57;;
59828;SDS011;45708;51.848;107.620;2022-08-01T17:17:31;8.43;;;5.03;;
59828;SDS011;45708;51.848;107.620;2022-08-01T17:22:32;7.70;;;4.90;;
59828;SDS011;45708;51.848;107.620;2022-08-01T17:27:33;12.05;;;4.38;;
59828;SDS011;45708;51.848;107.620;2022-08-01T17:32:34;5.15;;;2.80;;
59828;SDS011;45708;51.848;107.620;2022-08-01T17:37:35;3.35;;;2.58;;
59828;SDS011;45708;51.848;107.620;2022-08-01T17:42:36;4.60;;;2.03;;
59828;SDS011;45708;51.848;107.620;2022-08-01T17:47:37;1.95;;;1.30;;
59828;SDS011;45708;51.848;107.620;2022-08-01T17:52:38;2.80;;;1.30;;
59828;SDS011;45708;51.848;107.620;2022-08-01T17:57:39;5.47;;;3.55;;
59828;SDS011;45708;51.848;107.620;2022-08-01T18:02:40;6.43;;;3.70;;
59828;SDS011;45708;51.848;107.620;2022-08-01T18:07:41;3.97;;;2.30;;
59828;SDS011;45708;51.848;107.620;2022-08-01T18:12:42;3.72;;;2.28;;
59828;SDS011;45708;51.848;107.620;2022-08-01T18:17:43;5.95;;;2.65;;
59828;SDS011;45708;51.848;107.620;2022-08-01T18:22:44;6.53;;;3.30;;
59828;SDS011;45708;51.848;107.620;2022-08-01T18:27:44;8.90;;;3.20;;
59828;SDS011;45708;51.848;107.620;2022-08-01T18:32:46;3.85;;;2.45;;
59828;SDS011;45708;51.848;107.620;2022-08-01T18:37:47;6.70;;;3.58;;
59828;SDS011;45708;51.848;107.620;2022-08-01T18:42:48;5.93;;;3.75;;
59828;SDS011;45708;51.848;107.620;2022-08-01T18:47:49;5.72;;;3.75;;
59828;SDS011;45708;51.848;107.620;2022-08-01T18:52:50;7.25;;;5.10;;
59828;SDS011;45708;51.848;107.620;2022-08-01T18:57:51;7.45;;;4.32;;
59828;SDS011;45708;51.848;107.620;2022-08-01T19:02:51;8.90;;;4.47;;
59828;SDS011;45708;51.848;107.620;2022-08-01T19:07:52;13.15;;;6.80;;
59828;SDS011;45708;51.848;107.620;2022-08-01T19:12:53;7.70;;;5.75;;
59828;SDS011;45708;51.848;107.620;2022-08-01T19:17:54;10.90;;;5.35;;
59828;SDS011;45708;51.848;107.620;2022-08-01T19:22:55;13.13;;;5.95;;
59828;SDS011;45708;51.848;107.620;2022-08-01T19:27:56;7.53;;;4.30;;
59828;SDS011;45708;51.848;107.620;2022-08-01T19:32:58;7.97;;;4.07;;
59828;SDS011;45708;51.848;107.620;2022-08-01T19:37:59;9.75;;;4.10;;
59828;SDS011;45708;51.848;107.620;2022-08-01T19:43:00;7.57;;;3.72;;
59828;SDS011;45708;51.848;107.620;2022-08-01T19:48:02;3.75;;;2.30;;
59828;SDS011;45708;51.848;107.620;2022-08-01T19:53:05;7.78;;;3.90;;
59828;SDS011;45708;51.848;107.620;2022-08-01T19:58:07;9.27;;;5.15;;
59828;SDS011;45708;51.848;107.620;2022-08-01T20:03:09;6.10;;;4.25;;
59828;SDS011;45708;51.848;107.620;2022-08-01T20:08:11;11.18;;;6.20;;
59828;SDS011;45708;51.848;107.620;2022-08-01T20:13:15;10.68;;;5.15;;
59828;SDS011;45708;51.848;107.620;2022-08-01T20:18:16;7.80;;;4.32;;
59828;SDS011;45708;51.848;107.620;2022-08-01T20:39:54;7.97;;;4.97;;
59828;SDS011;45708;51.848;107.620;2022-08-01T20:44:58;6.22;;;3.78;;
59828;SDS011;45708;51.848;107.620;2022-08-01T20:50:01;7.35;;;3.53;;
59828;SDS011;45708;51.848;107.620;2022-08-01T20:55:02;11.48;;;6.05;;
59828;SDS011;45708;51.848;107.620;2022-08-01T21:00:04;8.70;;;3.92;;
59828;SDS011;45708;51.848;107.620;2022-08-01T21:05:06;12.15;;;6.43;;
59828;SDS011;45708;51.848;107.620;2022-08-01T21:10:10;15.15;;;6.03;;
59828;SDS011;45708;51.848;107.620;2022-08-01T21:15:14;17.77;;;8.73;;
59828;SDS011;45708;51.848;107.620;2022-08-01T21:20:19;10.48;;;5.68;;
59828;SDS011;45708;51.848;107.620;2022-08-01T21:25:25;6.20;;;3.72;;
59828;SDS011;45708;51.848;107.620;2022-08-01T21:30:30;7.32;;;3.78;;
59828;SDS011;45708;51.848;107.620;2022-08-01T21:35:32;7.35;;;3.45;;
59828;SDS011;45708;51.848;107.620;2022-08-01T21:40:34;3.95;;;2.53;;
59828;SDS011;45708;51.848;107.620;2022-08-01T21:45:35;5.68;;;2.30;;
59828;SDS011;45708;51.848;107.620;2022-08-01T21:50:39;5.50;;;2.45;;
59828;SDS011;45708;51.848;107.620;2022-08-01T22:00:51;13.52;;;6.75;;
59828;SDS011;45708;51.848;107.620;2022-08-01T22:05:55;12.57;;;6.50;;
59828;SDS011;45708;51.848;107.620;2022-08-01T22:11:04;14.23;;;7.55;;
59828;SDS011;45708;51.848;107.620;2022-08-01T22:16:06;14.55;;;6.90;;
59828;SDS011;45708;51.848;107.620;2022-08-01T22:21:09;12.63;;;5.85;;
59828;SDS011;45708;51.848;107.620;2022-08-01T22:26:11;13.70;;;7.40;;
59828;SDS011;45708;51.848;107.620;2022-08-01T22:31:14;16.45;;;7.85;;
59828;SDS011;45708;51.848;107.620;2022-08-01T22:36:15;11.68;;;6.70;;
59828;SDS011;45708;51.848;107.620;2022-08-01T22:41:18;14.55;;;7.50;;
59828;SDS011;45708;51.848;107.620;2022-08-01T22:51:29;14.85;;;6.68;;
59828;SDS011;45708;51.848;107.620;2022-08-01T22:56:40;16.20;;;8.50;;
59828;SDS011;45708;51.848;107.620;2022-08-01T23:01:45;18.88;;;8.57;;
59828;SDS011;45708;51.848;107.620;2022-08-01T23:06:49;17.40;;;9.43;;
59828;SDS011;45708;51.848;107.620;2022-08-01T23:11:53;15.60;;;7.97;;
59828;SDS011;45708;51.848;107.620;2022-08-01T23:16:55;18.35;;;9.68;;
59828;SDS011;45708;51.848;107.620;2022-08-01T23:21:59;19.50;;;9.70;;
59828;SDS011;45708;51.848;107.620;2022-08-01T23:27:00;18.50;;;10.05;;
59828;SDS011;45708;51.848;107.620;2022-08-01T23:32:02;16.45;;;8.73;;
59828;SDS011;45708;51.848;107.620;2022-08-01T23:37:04;17.65;;;9.85;;
59828;SDS011;45708;51.848;107.620;2022-08-01T23:42:05;20.80;;;9.07;;
59828;SDS011;45708;51.848;107.620;2022-08-01T23:47:06;19.95;;;10.13;;
59828;SDS011;45708;51.848;107.620;2022-08-01T23:52:08;20.15;;;9.55;;
59828;SDS011;45708;51.848;107.620;2022-08-01T23:57:09;19.55;;;9.70;;
